Main page
METAR-TAF:

METAR-TAF

Airports :

Asturias Airport

Avilés, Spain

latitude: 43-33N, longitude: 006-02W, elevation: 127 m

Current weather observation

The report was made 17 minutes ago, at 15:30 UTC
Wind 8 kt from the East/Northeast, varying between North and East/Southeast
Temperature 14°C
Humidity 72%
Pressure 1019 hPa
Visibility 10 km or more
Few clouds at a height of 2500 ft

METAR: LEAS 281530Z 07008KT 360V120 9999 FEW025 14/09 Q1019 NOSIG

Time: 16:47 (15:47 UTC)

Forecast

The report was made 1 hour and 47 minutes ago, at 14:00 UTC
Forecast valid from 28 at 15 UTC to 29 at 15 UTC
Wind 8 kt from the East/Northeast
Visibility 10 km or more
no clouds below 1500 m and no cumulonimbus
Probability 30% :
Temporary
from 29 at 12 UTC to 29 at 15 UTC
Scattered clouds at a height of 3000 ft, Towering cumulus.
rain, rain showers

TAF: LEAS 281400Z 2815/2915 07008KT CAVOK TX13/2914Z TN06/2905Z PROB30 TEMPO 2912/2915 RA SHRA SCT030TCU

Weather observations and forecasts of more than 4000 airports (METAR and TAF reports).

The available stations are represented by yellow and red dots on the map.

Hover mouse over dot to see the name of the station.

Then click to see weather observations and forecasts.

To change the map : click on the green buttons with a black cross to zoom in, on the green button with a dash to zoom out, or on the green arrows for adjacent maps.


METAR-TAF: